Time;durP1;ratioP1;P1;durP2;ratioP2;P2;SDS_P1;SDS_P2;PMS_P1;PMS_P2;Temp;Humidity;BMP_temperature;BMP_pressure;BME280_temperature;BME280_humidity;BME280_pressure;Samples;Min_cycle;Max_cycle;Signal;HPM_P1;HPM_P2
2022/09/10 00:01:59;;;;;;;;;;;;;;;;;;6273049;22;19922;-71
2022/09/10 00:04:25;;;;;;;;;;;;;;;;;;6272365;22;19957;-71
2022/09/10 00:06:50;;;;;;;;;;;;;;;;;;6273915;22;20263;-70
2022/09/10 00:09:16;;;;;;;;;;;;;;;;;;6273423;22;19911;-72
2022/09/10 00:11:42;;;;;;;;;;;;;;;;;;6246493;22;19912;-72
2022/09/10 00:14:07;;;;;;;;;;;;;;;;;;6245585;22;19957;-71
2022/09/10 00:16:33;;;;;;;;;;;;;;;;;;6246185;22;20010;-71
2022/09/10 00:19:00;;;;;;;;;;;;;;;;;;6272943;22;20334;-73
2022/09/10 00:21:25;;;;;;;;;;;;;;;;;;6271800;22;19911;-71
2022/09/10 00:23:51;;;;;;;;;;;;;;;;;;6272628;22;20247;-72
2022/09/10 00:26:17;;;;;;;;;;;;;;;;;;6273150;22;20064;-71
2022/09/10 00:28:42;;;;;;;;;;;;;;;;;;6246237;22;19918;-71
2022/09/10 00:31:08;;;;;;;;;;;;;;;;;;6245881;22;19911;-72
2022/09/10 00:33:33;;;;;;;;;;;;;;;;;;6273134;22;19998;-72
2022/09/10 00:35:59;;;;;;;;;;;;;;;;;;6271670;22;19915;-71
2022/09/10 00:38:27;;;;;;;;;;;;;;;;;;6273310;22;20416;-71
2022/09/10 00:40:52;;;;;;;;;;;;;;;;;;6246689;22;19986;-70
2022/09/10 00:43:19;;;;;;;;;;;;;;;;;;6273472;22;20387;-72
2022/09/10 00:45:44;;;;;;;;;;;;;;;;;;6246435;22;19958;-70
2022/09/10 00:48:10;;;;;;;;;;;;;;;;;;6271352;22;19911;-71
2022/09/10 00:50:35;;;;;;;;;;;;;;;;;;6273232;22;19925;-71
2022/09/10 00:53:01;;;;;;;;;;;;;;;;;;6271838;22;19943;-72
2022/09/10 00:55:27;;;;;;;;;;;;;;;;;;6271825;22;19911;-71
2022/09/10 00:57:53;;;;;;;;;;;;;;;;;;6273225;22;19981;-71
2022/09/10 01:00:19;;;;;;;;;;;;;;;;;;6221050;22;20090;-71
2022/09/10 01:02:44;;;;;;;;;;;;;;;;;;6246454;22;20263;-72
2022/09/10 01:05:10;;;;;;;;;;;;;;;;;;6245835;22;19926;-71
2022/09/10 01:07:36;;;;;;;;;;;;;;;;;;6245969;22;19911;-71
2022/09/10 01:10:02;;;;;;;;;;;;;;;;;;6272549;22;19911;-71
2022/09/10 01:12:28;;;;;;;;;;;;;;;;;;6273153;22;19956;-70
2022/09/10 01:14:54;;;;;;;;;;;;;;;;;;6272499;22;19997;-70
2022/09/10 01:17:19;;;;;;;;;;;;;;;;;;6273242;22;19934;-70
2022/09/10 01:19:45;;;;;;;;;;;;;;;;;;6272998;22;20350;-72
2022/09/10 01:22:11;;;;;;;;;;;;;;;;;;6245705;22;19917;-72
2022/09/10 01:24:36;;;;;;;;;;;;;;;;;;6272568;22;19925;-70
2022/09/10 01:27:02;;;;;;;;;;;;;;;;;;6270957;22;19911;-71
2022/09/10 01:29:27;;;;;;;;;;;;;;;;;;6271041;22;20212;-71
2022/09/10 01:31:53;;;;;;;;;;;;;;;;;;6272903;22;19907;-71
2022/09/10 01:34:19;;;;;;;;;;;;;;;;;;6270893;22;19916;-72
2022/09/10 01:36:46;;;;;;;;;;;;;;;;;;6271120;22;20340;-71
2022/09/10 01:39:12;;;;;;;;;;;;;;;;;;6270797;22;19918;-71
2022/09/10 01:41:38;;;;;;;;;;;;;;;;;;6271327;22;19911;-71
2022/09/10 01:44:04;;;;;;;;;;;;;;;;;;6272313;22;19994;-71
2022/09/10 01:46:29;;;;;;;;;;;;;;;;;;6245849;22;19915;-71
2022/09/10 01:48:58;;;;;;;;;;;;;;;;;;6270753;22;19934;-71
2022/09/10 01:51:24;;;;;;;;;;;;;;;;;;6271723;22;19918;-72
2022/09/10 01:53:49;;;;;;;;;;;;;;;;;;6246176;22;19915;-72
2022/09/10 01:56:16;;;;;;;;;;;;;;;;;;6245972;22;19911;-72
2022/09/10 01:58:42;;;;;;;;;;;;;;;;;;6270873;22;20414;-71
2022/09/10 02:01:20;;;;;;;;;;;;;;;;;;6245556;22;19922;-69
2022/09/10 02:03:46;;;;;;;;;;;;;;;;;;6245616;22;19998;-70
2022/09/10 02:06:13;;;;;;;;;;;;;;;;;;6245196;22;20339;-70
2022/09/10 02:08:39;;;;;;;;;;;;;;;;;;6246686;22;19915;-69
2022/09/10 02:11:05;;;;;;;;;;;;;;;;;;6272781;22;19918;-69
2022/09/10 02:13:34;;;;;;;;;;;;;;;;;;6247107;22;19919;-69
2022/09/10 02:16:29;;;;;;;;;;;;;;;;;;6254194;22;20240;-69
2022/09/10 02:18:56;;;;;;;;;;;;;;;;;;6272606;22;19927;-71
2022/09/10 02:21:22;;;;;;;;;;;;;;;;;;6274672;22;19918;-70
2022/09/10 02:23:48;;;;;;;;;;;;;;;;;;6272213;22;19998;-70
2022/09/10 02:26:14;;;;;;;;;;;;;;;;;;6273932;22;19915;-70
2022/09/10 02:28:40;;;;;;;;;;;;;;;;;;6272688;22;19911;-70
2022/09/10 02:31:05;;;;;;;;;;;;;;;;;;6272360;22;19912;-70
2022/09/10 02:33:31;;;;;;;;;;;;;;;;;;6246841;22;20263;-71
2022/09/10 02:35:56;;;;;;;;;;;;;;;;;;6273885;22;19911;-70
2022/09/10 02:38:22;;;;;;;;;;;;;;;;;;6221498;22;19919;-71
2022/09/10 02:40:48;;;;;;;;;;;;;;;;;;6272585;22;19912;-70
2022/09/10 02:43:13;;;;;;;;;;;;;;;;;;6272209;22;19911;-70
2022/09/10 02:45:39;;;;;;;;;;;;;;;;;;6272265;22;19915;-71
2022/09/10 02:48:05;;;;;;;;;;;;;;;;;;6272287;22;19911;-70
2022/09/10 02:50:31;;;;;;;;;;;;;;;;;;6272170;22;20374;-71
2022/09/10 02:53:00;;;;;;;;;;;;;;;;;;6273753;22;19911;-71
2022/09/10 02:55:25;;;;;;;;;;;;;;;;;;6272439;22;19988;-70
2022/09/10 02:57:51;;;;;;;;;;;;;;;;;;6221892;22;19919;-70
2022/09/10 03:00:19;;;;;;;;;;;;;;;;;;6273430;22;19934;-71
2022/09/10 03:02:45;;;;;;;;;;;;;;;;;;6272503;22;19915;-71
2022/09/10 03:05:11;;;;;;;;;;;;;;;;;;6246443;22;19938;-71
2022/09/10 03:07:36;;;;;;;;;;;;;;;;;;6273799;22;19918;-70
2022/09/10 03:10:02;;;;;;;;;;;;;;;;;;6245880;22;19917;-71
2022/09/10 03:12:28;;;;;;;;;;;;;;;;;;6272289;22;19913;-69
2022/09/10 03:14:55;;;;;;;;;;;;;;;;;;6246280;22;19947;-70
2022/09/10 03:17:21;;;;;;;;;;;;;;;;;;6273213;22;19919;-70
2022/09/10 03:19:48;;;;;;;;;;;;;;;;;;6271917;22;19918;-70
2022/09/10 03:22:13;;;;;;;;;;;;;;;;;;6273378;22;19911;-69
2022/09/10 03:24:39;;;;;;;;;;;;;;;;;;6272073;22;19976;-69
2022/09/10 03:27:05;;;;;;;;;;;;;;;;;;6273583;22;19911;-71
2022/09/10 03:29:31;;;;;;;;;;;;;;;;;;6271891;22;19911;-70
2022/09/10 03:31:57;;;;;;;;;;;;;;;;;;6272321;22;20263;-71
2022/09/10 03:34:23;;;;;;;;;;;;;;;;;;6271623;22;19998;-71
2022/09/10 03:36:50;;;;;;;;;;;;;;;;;;6273471;22;19915;-71
2022/09/10 03:39:17;;;;;;;;;;;;;;;;;;6271493;22;19957;-71
2022/09/10 03:41:44;;;;;;;;;;;;;;;;;;6246691;22;19911;-70
2022/09/10 03:44:09;;;;;;;;;;;;;;;;;;6271502;22;19915;-69
2022/09/10 03:46:36;;;;;;;;;;;;;;;;;;6271847;22;20402;-70
2022/09/10 03:49:02;;;;;;;;;;;;;;;;;;6245975;22;20318;-70
2022/09/10 03:51:30;;;;;;;;;;;;;;;;;;6271814;22;19942;-71
2022/09/10 03:53:58;;;;;;;;;;;;;;;;;;6271697;22;19911;-71
2022/09/10 03:56:24;;;;;;;;;;;;;;;;;;6245954;22;19918;-70
2022/09/10 03:58:50;;;;;;;;;;;;;;;;;;6273191;22;19923;-71
2022/09/10 04:01:16;;;;;;;;;;;;;;;;;;6273207;22;20065;-71
2022/09/10 04:03:45;;;;;;;;;;;;;;;;;;6271892;22;20041;-69
2022/09/10 04:06:11;;;;;;;;;;;;;;;;;;6246333;22;20320;-71
2022/09/10 04:08:36;;;;;;;;;;;;;;;;;;6246481;22;19946;-68
2022/09/10 04:11:04;;;;;;;;;;;;;;;;;;6271458;22;20322;-70
2022/09/10 04:13:30;;;;;;;;;;;;;;;;;;6271599;22;19965;-71
2022/09/10 04:15:56;;;;;;;;;;;;;;;;;;6245885;22;19915;-71
2022/09/10 04:18:22;;;;;;;;;;;;;;;;;;6271174;22;19942;-75
2022/09/10 04:20:48;;;;;;;;;;;;;;;;;;6271350;22;19911;-69
2022/09/10 04:23:13;;;;;;;;;;;;;;;;;;6272582;22;19926;-70
2022/09/10 04:25:39;;;;;;;;;;;;;;;;;;6271373;22;19919;-69
2022/09/10 04:28:05;;;;;;;;;;;;;;;;;;6271063;22;19937;-70
2022/09/10 04:30:31;;;;;;;;;;;;;;;;;;6245433;22;19911;-70
2022/09/10 04:32:57;;;;;;;;;;;;;;;;;;6271515;22;19911;-71
2022/09/10 04:35:22;;;;;;;;;;;;;;;;;;6271048;22;19911;-70
2022/09/10 04:37:48;;;;;;;;;;;;;;;;;;6272886;22;19942;-69
2022/09/10 04:40:14;;;;;;;;;;;;;;;;;;6270936;22;20483;-70
2022/09/10 04:42:39;;;;;;;;;;;;;;;;;;6271470;22;19922;-71
2022/09/10 04:45:05;;;;;;;;;;;;;;;;;;6270992;22;20241;-70
2022/09/10 04:47:32;;;;;;;;;;;;;;;;;;6272832;22;19911;-70
2022/09/10 04:49:57;;;;;;;;;;;;;;;;;;6271113;22;19912;-70
2022/09/10 04:52:23;;;;;;;;;;;;;;;;;;6270995;22;20450;-71
2022/09/10 04:54:50;;;;;;;;;;;;;;;;;;6271337;22;20190;-71
2022/09/10 04:57:16;;;;;;;;;;;;;;;;;;6245524;22;19915;-71
2022/09/10 04:59:42;;;;;;;;;;;;;;;;;;6271241;22;20258;-72
2022/09/10 05:02:08;;;;;;;;;;;;;;;;;;6245351;22;19911;-70
2022/09/10 05:04:35;;;;;;;;;;;;;;;;;;6270966;22;20013;-70
2022/09/10 05:07:00;;;;;;;;;;;;;;;;;;6273107;22;20391;-70
2022/09/10 05:09:30;;;;;;;;;;;;;;;;;;6219707;22;19978;-72
2022/09/10 05:11:56;;;;;;;;;;;;;;;;;;6271251;22;20021;-71
2022/09/10 05:14:22;;;;;;;;;;;;;;;;;;6244858;22;19939;-71
2022/09/10 05:16:47;;;;;;;;;;;;;;;;;;6272453;22;20302;-71
2022/09/10 05:19:16;;;;;;;;;;;;;;;;;;6245173;22;19922;-73
2022/09/10 05:21:48;;;;;;;;;;;;;;;;;;6271082;22;19911;-71
2022/09/10 05:24:14;;;;;;;;;;;;;;;;;;6272100;22;19954;-72
2022/09/10 05:26:41;;;;;;;;;;;;;;;;;;6245603;22;19911;-72
2022/09/10 05:29:07;;;;;;;;;;;;;;;;;;6264802;22;19918;-72
2022/09/10 05:31:34;;;;;;;;;;;;;;;;;;6269027;22;19917;-74
2022/09/10 05:34:00;;;;;;;;;;;;;;;;;;6243458;22;19915;-73
2022/09/10 05:36:25;;;;;;;;;;;;;;;;;;6270889;22;19917;-71
2022/09/10 05:38:52;;;;;;;;;;;;;;;;;;6243829;22;19942;-72
2022/09/10 05:41:19;;;;;;;;;;;;;;;;;;6270623;22;19922;-72
2022/09/10 05:43:47;;;;;;;;;;;;;;;;;;6245115;22;19912;-72
2022/09/10 05:46:13;;;;;;;;;;;;;;;;;;6245267;22;20045;-73
2022/09/10 05:48:42;;;;;;;;;;;;;;;;;;6271831;22;19912;-70
2022/09/10 05:51:09;;;;;;;;;;;;;;;;;;6270738;22;19926;-72
2022/09/10 05:53:35;;;;;;;;;;;;;;;;;;6245527;22;19911;-71
2022/09/10 05:56:00;;;;;;;;;;;;;;;;;;6245797;22;19911;-73
2022/09/10 05:58:26;;;;;;;;;;;;;;;;;;6270826;22;19931;-72
2022/09/10 06:00:53;;;;;;;;;;;;;;;;;;6271315;22;20307;-73
2022/09/10 06:03:19;;;;;;;;;;;;;;;;;;6271319;22;19926;-72
2022/09/10 06:05:49;;;;;;;;;;;;;;;;;;6270992;22;20263;-69
2022/09/10 06:08:15;;;;;;;;;;;;;;;;;;6245580;22;19997;-70
2022/09/10 06:10:42;;;;;;;;;;;;;;;;;;6271437;22;19990;-71
2022/09/10 06:13:08;;;;;;;;;;;;;;;;;;6272530;22;19947;-71
2022/09/10 06:15:33;;;;;;;;;;;;;;;;;;6271521;22;19907;-71
2022/09/10 06:18:00;;;;;;;;;;;;;;;;;;6271187;22;19938;-73
2022/09/10 06:20:26;;;;;;;;;;;;;;;;;;6245191;22;19915;-71
2022/09/10 06:22:51;;;;;;;;;;;;;;;;;;6245342;22;20255;-70
2022/09/10 06:25:17;;;;;;;;;;;;;;;;;;6244455;22;19964;-74
2022/09/10 06:27:43;;;;;;;;;;;;;;;;;;6246012;22;19994;-71
2022/09/10 06:30:09;;;;;;;;;;;;;;;;;;6220162;22;19911;-72
2022/09/10 06:32:38;;;;;;;;;;;;;;;;;;6271259;22;19915;-71
2022/09/10 06:35:04;;;;;;;;;;;;;;;;;;6269935;22;19918;-68
2022/09/10 06:37:33;;;;;;;;;;;;;;;;;;6269999;22;19919;-69
2022/09/10 06:40:00;;;;;;;;;;;;;;;;;;6271035;22;20478;-73
2022/09/10 06:42:26;;;;;;;;;;;;;;;;;;6245169;22;19911;-71
2022/09/10 06:45:14;;;;;;;;;;;;;;;;;;6259129;22;20251;-70
2022/09/10 06:47:46;;;;;;;;;;;;;;;;;;6245231;22;20320;-72
2022/09/10 06:50:13;;;;;;;;;;;;;;;;;;6270629;22;19911;-72
2022/09/10 06:52:42;;;;;;;;;;;;;;;;;;6246226;22;19943;-71
2022/09/10 06:55:11;;;;;;;;;;;;;;;;;;6244956;22;20344;-72
2022/09/10 06:57:40;;;;;;;;;;;;;;;;;;6270939;22;19919;-71
2022/09/10 07:00:07;;;;;;;;;;;;;;;;;;6270664;22;19942;-70
2022/09/10 07:02:34;;;;;;;;;;;;;;;;;;6270903;22;19911;-71
2022/09/10 07:04:59;;;;;;;;;;;;;;;;;;6219036;22;19941;-70
2022/09/10 07:07:25;;;;;;;;;;;;;;;;;;6272090;22;19990;-71
2022/09/10 07:09:53;;;;;;;;;;;;;;;;;;6270818;22;20411;-72
2022/09/10 07:12:20;;;;;;;;;;;;;;;;;;6244904;22;20002;-72
2022/09/10 07:14:46;;;;;;;;;;;;;;;;;;6270872;22;20006;-72
2022/09/10 07:17:11;;;;;;;;;;;;;;;;;;6271002;22;19958;-73
2022/09/10 07:19:37;;;;;;;;;;;;;;;;;;6271837;22;20355;-73
2022/09/10 07:22:23;;;;;;;;;;;;;;;;;;6271041;22;19911;-71
2022/09/10 07:24:50;;;;;;;;;;;;;;;;;;6268839;22;19950;-73
2022/09/10 07:27:29;;;;;;;;;;;;;;;;;;6270799;22;20061;-71
2022/09/10 07:29:56;;;;;;;;;;;;;;;;;;6218670;22;19911;-73
2022/09/10 07:32:22;;;;;;;;;;;;;;;;;;6242036;22;19933;-72
2022/09/10 07:34:54;;;;;;;;;;;;;;;;;;6242472;22;19911;-72
2022/09/10 07:37:22;;;;;;;;;;;;;;;;;;6267540;22;19923;-72
2022/09/10 07:39:48;;;;;;;;;;;;;;;;;;6267439;22;19919;-72
2022/09/10 07:42:15;;;;;;;;;;;;;;;;;;6268819;22;20324;-72
2022/09/10 07:44:40;;;;;;;;;;;;;;;;;;6267580;22;19942;-72
2022/09/10 07:47:06;;;;;;;;;;;;;;;;;;6270167;22;19995;-72
2022/09/10 07:49:31;;;;;;;;;;;;;;;;;;6271007;22;19911;-72
2022/09/10 07:51:58;;;;;;;;;;;;;;;;;;6263801;22;19923;-71
2022/09/10 07:54:24;;;;;;;;;;;;;;;;;;6217689;22;19986;-72
2022/09/10 07:56:53;;;;;;;;;;;;;;;;;;6271485;22;19911;-72
2022/09/10 07:59:19;;;;;;;;;;;;;;;;;;6269276;22;19973;-73
2022/09/10 08:01:49;;;;;;;;;;;;;;;;;;6243932;22;19957;-73
2022/09/10 08:04:16;;;;;;;;;;;;;;;;;;6242667;22;20344;-72
2022/09/10 08:06:42;;;;;;;;;;;;;;;;;;6269133;22;19911;-76
2022/09/10 08:09:08;;;;;;;;;;;;;;;;;;6272480;22;20281;-79
2022/09/10 08:11:38;;;;;;;;;;;;;;;;;;6243754;22;19931;-79
2022/09/10 08:14:04;;;;;;;;;;;;;;;;;;6270056;22;19918;-81
2022/09/10 08:16:31;;;;;;;;;;;;;;;;;;6269224;22;19926;-79
2022/09/10 08:19:03;;;;;;;;;;;;;;;;;;6242133;22;19919;-74
2022/09/10 08:21:33;;;;;;;;;;;;;;;;;;6243887;22;19911;-73
2022/09/10 08:24:02;;;;;;;;;;;;;;;;;;6271766;22;19927;-80
2022/09/10 08:26:32;;;;;;;;;;;;;;;;;;6269531;22;19915;-80
2022/09/10 08:29:01;;;;;;;;;;;;;;;;;;6270490;22;19915;-69
2022/09/10 08:31:28;;;;;;;;;;;;;;;;;;6268664;22;19993;-68
2022/09/10 08:34:13;;;;;;;;;;;;;;;;;;6242097;22;19915;-69
2022/09/10 08:36:42;;;;;;;;;;;;;;;;;;6241932;22;19915;-69
2022/09/10 08:39:09;;;;;;;;;;;;;;;;;;6242599;22;19954;-69
2022/09/10 08:41:35;;;;;;;;;;;;;;;;;;6241491;22;19912;-70
2022/09/10 08:44:02;;;;;;;;;;;;;;;;;;6242703;22;19982;-71
2022/09/10 08:46:28;;;;;;;;;;;;;;;;;;6268044;22;19939;-68
2022/09/10 08:48:55;;;;;;;;;;;;;;;;;;6268263;22;19953;-70
2022/09/10 08:51:24;;;;;;;;;;;;;;;;;;6269911;22;19915;-72
2022/09/10 08:53:49;;;;;;;;;;;;;;;;;;6268743;22;20471;-70
2022/09/10 08:56:15;;;;;;;;;;;;;;;;;;6266998;22;19911;-71
2022/09/10 08:58:41;;;;;;;;;;;;;;;;;;6266743;22;19949;-72
2022/09/10 09:01:06;;;;;;;;;;;;;;;;;;6242742;22;19969;-72
2022/09/10 09:03:34;;;;;;;;;;;;;;;;;;6269278;22;19911;-71
2022/09/10 09:06:00;;;;;;;;;;;;;;;;;;6244228;22;19922;-71
2022/09/10 09:11:10;;;;;;;;;;;;;;;;;;6236129;23;19923;-85
2022/09/10 09:13:36;;;;;;;;;;;;;;;;;;6225951;23;19919;-84
2022/09/10 09:16:01;;;;;;;;;;;;;;;;;;6224557;23;19919;-83
2022/09/10 09:18:27;;;;;;;;;;;;;;;;;;6247143;23;19938;-82
2022/09/10 09:20:53;;;;;;;;;;;;;;;;;;6215187;23;19923;-77
2022/09/10 09:23:19;;;;;;;;;;;;;;;;;;6215745;23;19912;-79
2022/09/10 09:25:45;;;;;;;;;;;;;;;;;;6191446;23;19915;-76
2022/09/10 09:28:11;;;;;;;;;;;;;;;;;;6215486;23;20326;-77
2022/09/10 09:30:36;;;;;;;;;;;;;;;;;;6215433;23;19986;-75
2022/09/10 09:33:04;;;;;;;;;;;;;;;;;;6214204;23;19911;-76
2022/09/10 09:35:31;;;;;;;;;;;;;;;;;;6215467;23;20365;-77
2022/09/10 09:37:57;;;;;;;;;;;;;;;;;;6216588;23;19916;-78
2022/09/10 09:40:23;;;;;;;;;;;;;;;;;;6216436;23;20401;-80
2022/09/10 09:42:49;;;;;;;;;;;;;;;;;;6217421;23;19973;-80
2022/09/10 09:45:17;;;;;;;;;;;;;;;;;;6218465;23;19918;-81
2022/09/10 09:47:42;;;;;;;;;;;;;;;;;;6248626;23;19912;-80
2022/09/10 09:50:08;;;;;;;;;;;;;;;;;;6224737;23;20007;-78
2022/09/10 09:52:33;;;;;;;;;;;;;;;;;;6226092;23;20317;-76
2022/09/10 09:54:59;;;;;;;;;;;;;;;;;;6218042;23;20406;-77
2022/09/10 09:57:24;;;;;;;;;;;;;;;;;;6242490;23;20632;-78
2022/09/10 09:59:50;;;;;;;;;;;;;;;;;;6242767;23;20351;-78
2022/09/10 10:02:16;;;;;;;;;;;;;;;;;;6243932;23;19990;-77
2022/09/10 10:04:42;;;;;;;;;;;;;;;;;;6241302;23;20305;-78
2022/09/10 10:07:07;;;;;;;;;;;;;;;;;;6214433;23;20259;-79
2022/09/10 10:09:33;;;;;;;;;;;;;;;;;;6242065;23;19989;-76
2022/09/10 10:11:58;;;;;;;;;;;;;;;;;;6242286;23;19915;-78
2022/09/10 10:14:24;;;;;;;;;;;;;;;;;;6242415;23;20339;-77
2022/09/10 10:16:51;;;;;;;;;;;;;;;;;;6216042;23;19911;-78
2022/09/10 10:19:16;;;;;;;;;;;;;;;;;;6243061;23;19919;-78
2022/09/10 10:21:43;;;;;;;;;;;;;;;;;;6243062;23;20370;-79
2022/09/10 10:24:09;;;;;;;;;;;;;;;;;;6256753;23;20470;-79
2022/09/10 10:26:34;;;;;;;;;;;;;;;;;;6245080;23;19919;-78
2022/09/10 10:29:00;;;;;;;;;;;;;;;;;;6242326;23;20284;-78
2022/09/10 10:31:28;;;;;;;;;;;;;;;;;;6242197;23;19912;-78
2022/09/10 10:33:53;;;;;;;;;;;;;;;;;;6242670;23;19912;-76
2022/09/10 10:36:19;;;;;;;;;;;;;;;;;;6242298;23;19914;-78
2022/09/10 10:38:45;;;;;;;;;;;;;;;;;;6242188;23;20004;-78
2022/09/10 10:41:10;;;;;;;;;;;;;;;;;;6242657;23;20340;-79
2022/09/10 10:43:36;;;;;;;;;;;;;;;;;;6242363;23;19911;-79
2022/09/10 10:46:01;;;;;;;;;;;;;;;;;;6242457;23;19912;-78
2022/09/10 10:48:27;;;;;;;;;;;;;;;;;;6241066;23;19912;-79
2022/09/10 10:50:53;;;;;;;;;;;;;;;;;;6241637;23;19912;-78
2022/09/10 10:53:18;;;;;;;;;;;;;;;;;;6242403;23;19990;-77
2022/09/10 10:55:44;;;;;;;;;;;;;;;;;;6215320;23;19990;-78
2022/09/10 10:58:10;;;;;;;;;;;;;;;;;;6215708;23;19920;-78
2022/09/10 11:00:35;;;;;;;;;;;;;;;;;;6242292;23;19911;-79
2022/09/10 11:03:01;;;;;;;;;;;;;;;;;;6242400;23;19919;-78
2022/09/10 11:05:26;;;;;;;;;;;;;;;;;;6241925;23;19922;-78
2022/09/10 11:07:52;;;;;;;;;;;;;;;;;;6242084;23;19918;-78
2022/09/10 11:10:18;;;;;;;;;;;;;;;;;;6241664;23;19919;-78
2022/09/10 11:12:44;;;;;;;;;;;;;;;;;;6215350;23;20399;-78
2022/09/10 11:15:10;;;;;;;;;;;;;;;;;;6241670;23;19912;-78
2022/09/10 11:17:37;;;;;;;;;;;;;;;;;;6241785;23;19911;-78
2022/09/10 11:20:03;;;;;;;;;;;;;;;;;;6241593;23;19922;-77
2022/09/10 11:22:29;;;;;;;;;;;;;;;;;;6242446;23;20336;-78
2022/09/10 11:24:55;;;;;;;;;;;;;;;;;;6241803;23;19916;-78
2022/09/10 11:27:21;;;;;;;;;;;;;;;;;;6241540;23;19934;-78
2022/09/10 11:29:47;;;;;;;;;;;;;;;;;;6241484;23;20362;-78
2022/09/10 11:32:12;;;;;;;;;;;;;;;;;;6241771;23;19965;-78
2022/09/10 11:34:39;;;;;;;;;;;;;;;;;;6242092;23;19912;-78
2022/09/10 11:37:04;;;;;;;;;;;;;;;;;;6240412;23;19912;-78
2022/09/10 11:39:30;;;;;;;;;;;;;;;;;;6189360;23;19916;-80
2022/09/10 11:41:56;;;;;;;;;;;;;;;;;;6215060;23;19995;-78
2022/09/10 11:44:22;;;;;;;;;;;;;;;;;;6240619;23;19961;-79
2022/09/10 11:46:47;;;;;;;;;;;;;;;;;;6241527;23;19919;-79
2022/09/10 11:49:13;;;;;;;;;;;;;;;;;;6241916;23;19918;-79
2022/09/10 11:51:39;;;;;;;;;;;;;;;;;;6242078;23;19912;-78
2022/09/10 11:54:06;;;;;;;;;;;;;;;;;;6241845;23;20402;-79
2022/09/10 11:56:31;;;;;;;;;;;;;;;;;;6215184;23;20339;-78
2022/09/10 11:58:57;;;;;;;;;;;;;;;;;;6241919;23;19922;-78
2022/09/10 12:01:22;;;;;;;;;;;;;;;;;;6215148;23;19938;-78
2022/09/10 12:03:48;;;;;;;;;;;;;;;;;;6241882;23;20352;-78
2022/09/10 12:06:14;;;;;;;;;;;;;;;;;;6241624;23;19939;-76
2022/09/10 12:08:39;;;;;;;;;;;;;;;;;;6240681;23;19943;-78
2022/09/10 12:11:05;;;;;;;;;;;;;;;;;;6214413;23;19974;-78
2022/09/10 12:13:33;;;;;;;;;;;;;;;;;;6214832;23;19912;-78
2022/09/10 12:16:00;;;;;;;;;;;;;;;;;;6241656;23;19912;-80
2022/09/10 12:18:27;;;;;;;;;;;;;;;;;;6241814;23;19920;-79
2022/09/10 12:20:52;;;;;;;;;;;;;;;;;;6248593;23;20005;-78
2022/09/10 12:23:18;;;;;;;;;;;;;;;;;;6252101;23;20352;-77
2022/09/10 12:25:43;;;;;;;;;;;;;;;;;;6241099;23;20542;-79
2022/09/10 12:28:09;;;;;;;;;;;;;;;;;;6214846;23;19919;-79
2022/09/10 12:30:35;;;;;;;;;;;;;;;;;;6240554;23;19922;-78
2022/09/10 12:33:00;;;;;;;;;;;;;;;;;;6241854;23;19957;-78
2022/09/10 12:35:26;;;;;;;;;;;;;;;;;;6240028;23;19958;-78
2022/09/10 12:37:52;;;;;;;;;;;;;;;;;;6241587;23;19926;-78
2022/09/10 12:40:18;;;;;;;;;;;;;;;;;;6241844;23;19911;-78
2022/09/10 12:42:44;;;;;;;;;;;;;;;;;;6241111;23;20275;-78
2022/09/10 12:45:10;;;;;;;;;;;;;;;;;;6189172;23;19941;-79
2022/09/10 12:47:38;;;;;;;;;;;;;;;;;;6214205;23;20028;-78
2022/09/10 12:50:04;;;;;;;;;;;;;;;;;;6216614;23;19990;-78
2022/09/10 12:52:30;;;;;;;;;;;;;;;;;;6242310;23;19911;-78
2022/09/10 12:54:56;;;;;;;;;;;;;;;;;;6242310;23;19930;-77
2022/09/10 12:57:21;;;;;;;;;;;;;;;;;;6251262;23;19998;-79
2022/09/10 12:59:47;;;;;;;;;;;;;;;;;;6253494;23;19963;-78
2022/09/10 13:02:13;;;;;;;;;;;;;;;;;;6245365;23;19999;-78
2022/09/10 13:04:38;;;;;;;;;;;;;;;;;;6241372;23;19912;-78
2022/09/10 13:07:04;;;;;;;;;;;;;;;;;;6214391;23;19953;-78
2022/09/10 13:09:29;;;;;;;;;;;;;;;;;;6240685;23;19915;-78
2022/09/10 13:11:55;;;;;;;;;;;;;;;;;;6239010;23;19981;-77
2022/09/10 13:14:21;;;;;;;;;;;;;;;;;;6241243;23;20381;-78
2022/09/10 13:16:47;;;;;;;;;;;;;;;;;;6240823;23;19911;-78
2022/09/10 13:19:13;;;;;;;;;;;;;;;;;;6241026;23;19919;-78
2022/09/10 13:21:38;;;;;;;;;;;;;;;;;;6240225;23;19911;-78
2022/09/10 13:24:05;;;;;;;;;;;;;;;;;;6239718;23;19911;-79
2022/09/10 13:26:32;;;;;;;;;;;;;;;;;;6239255;23;19911;-78
2022/09/10 13:28:59;;;;;;;;;;;;;;;;;;6188867;23;19962;-78
2022/09/10 13:31:25;;;;;;;;;;;;;;;;;;6239323;23;20145;-78
2022/09/10 13:33:51;;;;;;;;;;;;;;;;;;6239151;23;20351;-79
2022/09/10 13:36:17;;;;;;;;;;;;;;;;;;6240507;23;19918;-78
2022/09/10 13:38:42;;;;;;;;;;;;;;;;;;6239735;23;19920;-78
2022/09/10 13:41:09;;;;;;;;;;;;;;;;;;6240879;23;19912;-78
2022/09/10 13:43:34;;;;;;;;;;;;;;;;;;6241038;23;19935;-77
2022/09/10 13:46:00;;;;;;;;;;;;;;;;;;6240417;23;19918;-78
2022/09/10 13:48:26;;;;;;;;;;;;;;;;;;6239968;23;20360;-78
2022/09/10 13:50:51;;;;;;;;;;;;;;;;;;6213914;23;19939;-78
2022/09/10 13:53:17;;;;;;;;;;;;;;;;;;6240189;23;20336;-78
2022/09/10 13:55:43;;;;;;;;;;;;;;;;;;6239955;23;19911;-78
2022/09/10 13:58:08;;;;;;;;;;;;;;;;;;6240332;23;20344;-78
2022/09/10 14:00:34;;;;;;;;;;;;;;;;;;6239968;23;19947;-78
2022/09/10 14:02:59;;;;;;;;;;;;;;;;;;6213568;23;20410;-78
2022/09/10 14:05:25;;;;;;;;;;;;;;;;;;6216001;23;19930;-78
2022/09/10 14:07:51;;;;;;;;;;;;;;;;;;6241771;23;19937;-79
2022/09/10 14:10:17;;;;;;;;;;;;;;;;;;6215736;23;20367;-79
2022/09/10 14:12:43;;;;;;;;;;;;;;;;;;6242516;23;19918;-78
2022/09/10 14:15:08;;;;;;;;;;;;;;;;;;6243490;23;19952;-79
2022/09/10 14:17:34;;;;;;;;;;;;;;;;;;6252688;23;19915;-77
2022/09/10 14:20:00;;;;;;;;;;;;;;;;;;6253425;23;19990;-79
2022/09/10 14:22:25;;;;;;;;;;;;;;;;;;6243771;23;20387;-78
2022/09/10 14:24:51;;;;;;;;;;;;;;;;;;6245139;23;19966;-79
2022/09/10 14:27:17;;;;;;;;;;;;;;;;;;6242983;23;20411;-79
2022/09/10 14:29:42;;;;;;;;;;;;;;;;;;6241264;23;19918;-79
2022/09/10 14:32:08;;;;;;;;;;;;;;;;;;6242028;23;19935;-78
2022/09/10 14:34:35;;;;;;;;;;;;;;;;;;6241084;23;20265;-78
2022/09/10 14:37:01;;;;;;;;;;;;;;;;;;6240878;23;19918;-78
2022/09/10 14:39:27;;;;;;;;;;;;;;;;;;6215438;23;19915;-78
2022/09/10 14:41:53;;;;;;;;;;;;;;;;;;6241231;23;19912;-78
2022/09/10 14:44:19;;;;;;;;;;;;;;;;;;6242592;23;20283;-78
2022/09/10 14:46:44;;;;;;;;;;;;;;;;;;6241705;23;19915;-77
2022/09/10 14:49:10;;;;;;;;;;;;;;;;;;6241701;23;20370;-78
2022/09/10 14:51:36;;;;;;;;;;;;;;;;;;6242371;23;19934;-78
2022/09/10 14:54:01;;;;;;;;;;;;;;;;;;6241935;23;19911;-77
2022/09/10 14:56:27;;;;;;;;;;;;;;;;;;6242584;23;19929;-79
2022/09/10 14:58:53;;;;;;;;;;;;;;;;;;6242128;23;19920;-78
2022/09/10 15:01:19;;;;;;;;;;;;;;;;;;6241267;23;19965;-78
2022/09/10 15:03:46;;;;;;;;;;;;;;;;;;6241678;23;19911;-77
2022/09/10 15:06:11;;;;;;;;;;;;;;;;;;6241927;23;20394;-77
2022/09/10 15:08:38;;;;;;;;;;;;;;;;;;6239921;23;19911;-76
2022/09/10 15:11:05;;;;;;;;;;;;;;;;;;6241231;23;19919;-78
2022/09/10 15:13:31;;;;;;;;;;;;;;;;;;6214367;23;19911;-78
2022/09/10 15:15:57;;;;;;;;;;;;;;;;;;6240833;23;19912;-78
2022/09/10 15:18:22;;;;;;;;;;;;;;;;;;6241301;23;20014;-77
2022/09/10 15:20:49;;;;;;;;;;;;;;;;;;6215288;23;19965;-77
2022/09/10 15:23:16;;;;;;;;;;;;;;;;;;6242302;23;19956;-78
2022/09/10 15:25:41;;;;;;;;;;;;;;;;;;6240559;23;20389;-79
2022/09/10 15:28:07;;;;;;;;;;;;;;;;;;6238478;23;19994;-78
2022/09/10 15:30:34;;;;;;;;;;;;;;;;;;6241496;23;20196;-78
2022/09/10 15:33:00;;;;;;;;;;;;;;;;;;6239925;23;20143;-78
2022/09/10 15:35:25;;;;;;;;;;;;;;;;;;6242063;23;19918;-78
2022/09/10 15:37:51;;;;;;;;;;;;;;;;;;6241387;23;19915;-78
2022/09/10 15:40:17;;;;;;;;;;;;;;;;;;6241342;23;20001;-77
2022/09/10 15:42:42;;;;;;;;;;;;;;;;;;6241069;23;19943;-78
2022/09/10 15:45:08;;;;;;;;;;;;;;;;;;6241049;23;19935;-78
2022/09/10 15:47:35;;;;;;;;;;;;;;;;;;6243617;23;20267;-77
2022/09/10 15:50:00;;;;;;;;;;;;;;;;;;6242629;23;19915;-77
2022/09/10 15:52:26;;;;;;;;;;;;;;;;;;6226076;23;19911;-78
2022/09/10 15:54:53;;;;;;;;;;;;;;;;;;6229529;23;19934;-77
2022/09/10 15:57:18;;;;;;;;;;;;;;;;;;6247208;23;20348;-77
2022/09/10 15:59:44;;;;;;;;;;;;;;;;;;6241821;23;19926;-78
2022/09/10 16:02:12;;;;;;;;;;;;;;;;;;6240352;23;20307;-78
2022/09/10 16:04:37;;;;;;;;;;;;;;;;;;6240257;23;19916;-76
2022/09/10 16:07:03;;;;;;;;;;;;;;;;;;6241486;23;20017;-77
2022/09/10 16:09:28;;;;;;;;;;;;;;;;;;6241715;23;19927;-77
2022/09/10 16:11:54;;;;;;;;;;;;;;;;;;6241458;23;19912;-77
2022/09/10 16:14:20;;;;;;;;;;;;;;;;;;6245903;23;19911;-78
2022/09/10 16:16:46;;;;;;;;;;;;;;;;;;6255478;23;19915;-79
2022/09/10 16:19:11;;;;;;;;;;;;;;;;;;6214922;23;19919;-78
2022/09/10 16:21:38;;;;;;;;;;;;;;;;;;6242163;23;20296;-78
2022/09/10 16:24:03;;;;;;;;;;;;;;;;;;6214271;23;19918;-78
2022/09/10 16:26:29;;;;;;;;;;;;;;;;;;6214422;23;19912;-77
2022/09/10 16:28:55;;;;;;;;;;;;;;;;;;6241265;23;20503;-77
2022/09/10 16:31:24;;;;;;;;;;;;;;;;;;6241079;23;19918;-77
2022/09/10 16:33:49;;;;;;;;;;;;;;;;;;6214364;23;19965;-78
2022/09/10 16:36:15;;;;;;;;;;;;;;;;;;6188639;23;19916;-77
2022/09/10 16:38:41;;;;;;;;;;;;;;;;;;6240872;23;19965;-78
2022/09/10 16:41:08;;;;;;;;;;;;;;;;;;6214201;23;19919;-78
2022/09/10 16:43:36;;;;;;;;;;;;;;;;;;6239519;23;19912;-78